createdAt,value
2022-09-09T00:02:52.592Z,17.62
2022-09-09T00:06:03.224Z,17.58
2022-09-09T00:09:08.031Z,17.68
2022-09-09T00:12:15.936Z,17.69
2022-09-09T00:15:21.669Z,17.75
2022-09-09T00:18:29.585Z,17.81
2022-09-09T00:21:34.641Z,17.88
2022-09-09T00:24:42.746Z,17.86
2022-09-09T00:27:48.689Z,17.77
2022-09-09T00:30:50.396Z,17.77
2022-09-09T00:33:54.074Z,17.77
2022-09-09T00:36:57.145Z,17.81
2022-09-09T00:40:02.049Z,17.89
2022-09-09T00:43:22.089Z,17.93
2022-09-09T00:46:54.613Z,18.00
2022-09-09T00:50:02.585Z,18.09
2022-09-09T00:53:19.758Z,18.15
2022-09-09T00:56:27.807Z,18.04
2022-09-09T00:59:37.239Z,18.13
2022-09-09T01:02:50.119Z,18.07
2022-09-09T01:06:02.344Z,17.97
2022-09-09T01:09:12.729Z,17.99
2022-09-09T01:12:16.978Z,17.93
2022-09-09T01:15:25.635Z,17.93
2022-09-09T01:18:30.058Z,17.94
2022-09-09T01:21:40.569Z,17.84
2022-09-09T01:24:47.055Z,17.80
2022-09-09T01:27:57.345Z,17.83
2022-09-09T01:30:59.812Z,17.76
2022-09-09T01:34:11.167Z,17.66
2022-09-09T01:37:14.369Z,17.59
2022-09-09T01:40:16.627Z,17.59
2022-09-09T01:43:21.112Z,17.47
2022-09-09T01:46:23.789Z,17.52
2022-09-09T01:49:26.012Z,17.52
2022-09-09T01:52:27.695Z,17.64
2022-09-09T01:55:32.965Z,17.68
2022-09-09T01:58:52.926Z,17.61
2022-09-09T02:02:09.456Z,17.50
2022-09-09T02:05:21.963Z,17.45
2022-09-09T02:08:31.281Z,17.46
2022-09-09T02:11:38.710Z,17.27
2022-09-09T02:14:57.253Z,17.40
2022-09-09T02:18:03.066Z,17.47
2022-09-09T02:21:06.309Z,17.42
2022-09-09T02:24:11.219Z,17.45
2022-09-09T02:27:20.252Z,17.35
2022-09-09T02:30:23.482Z,17.39
2022-09-09T02:33:37.940Z,17.40
2022-09-09T02:36:44.325Z,17.35
2022-09-09T02:39:46.020Z,17.39
2022-09-09T02:42:51.038Z,17.38
2022-09-09T02:46:04.759Z,17.28
2022-09-09T02:49:12.085Z,17.23
2022-09-09T02:52:18.657Z,17.19
2022-09-09T02:55:28.491Z,17.23
2022-09-09T02:58:32.831Z,17.18
2022-09-09T03:01:41.109Z,17.15
2022-09-09T03:04:45.447Z,17.18
2022-09-09T03:07:48.421Z,17.17
2022-09-09T03:10:54.950Z,17.11
2022-09-09T03:13:59.544Z,17.16
2022-09-09T03:17:06.081Z,17.13
2022-09-09T03:20:13.355Z,17.07
2022-09-09T03:23:16.020Z,16.97
2022-09-09T03:26:18.778Z,16.95
2022-09-09T03:29:22.534Z,16.94
2022-09-09T03:32:27.062Z,16.91
2022-09-09T03:35:31.504Z,16.90
2022-09-09T03:38:33.541Z,16.77
2022-09-09T03:41:35.681Z,16.80
2022-09-09T03:44:38.106Z,16.73
2022-09-09T03:47:41.220Z,16.71
2022-09-09T03:50:45.766Z,16.62
2022-09-09T03:53:47.617Z,16.75
2022-09-09T03:56:50.421Z,16.71
2022-09-09T03:59:52.083Z,16.72
2022-09-09T04:02:55.504Z,16.60
2022-09-09T04:05:59.131Z,16.52
2022-09-09T04:09:04.188Z,16.54
2022-09-09T04:12:07.595Z,16.49
2022-09-09T04:15:11.516Z,16.46
2022-09-09T04:18:19.820Z,16.30
2022-09-09T04:21:22.368Z,16.42
2022-09-09T04:24:24.312Z,16.51
2022-09-09T04:27:26.125Z,16.50
2022-09-09T04:30:29.162Z,16.36
2022-09-09T04:33:34.290Z,16.24
2022-09-09T04:36:40.105Z,16.26
2022-09-09T04:39:41.766Z,16.33
2022-09-09T04:42:44.917Z,16.44
2022-09-09T04:45:49.983Z,16.39
2022-09-09T04:48:53.725Z,16.40
2022-09-09T04:51:57.282Z,16.40
2022-09-09T04:54:59.482Z,16.46
2022-09-09T04:58:04.787Z,16.40
2022-09-09T05:01:08.537Z,16.38
2022-09-09T05:04:12.909Z,16.35
2022-09-09T05:07:15.558Z,16.38
2022-09-09T05:10:19.002Z,16.42
2022-09-09T05:13:22.104Z,16.54
2022-09-09T05:16:24.467Z,16.49
2022-09-09T05:19:27.877Z,16.45
2022-09-09T05:22:29.804Z,16.51
2022-09-09T05:25:32.248Z,16.53
2022-09-09T05:28:35.963Z,16.43
2022-09-09T05:31:37.902Z,16.53
2022-09-09T05:34:45.997Z,16.48
2022-09-09T05:37:48.752Z,16.52
2022-09-09T05:40:51.026Z,16.56
2022-09-09T05:43:52.652Z,16.61
2022-09-09T05:46:55.395Z,16.73
2022-09-09T05:49:59.115Z,16.74
2022-09-09T05:53:00.793Z,16.78
2022-09-09T05:56:04.436Z,16.75
2022-09-09T05:59:08.439Z,16.74
2022-09-09T06:02:10.349Z,16.84
2022-09-09T06:05:14.431Z,16.90
2022-09-09T06:08:17.179Z,16.93
2022-09-09T06:11:20.521Z,16.95
2022-09-09T06:14:22.786Z,16.91
2022-09-09T06:17:26.057Z,17.01
2022-09-09T06:20:31.596Z,16.96
2022-09-09T06:23:33.901Z,17.00
2022-09-09T06:26:37.716Z,16.91
2022-09-09T06:29:40.427Z,16.93
2022-09-09T06:32:43.952Z,17.00
2022-09-09T06:35:54.151Z,17.06
2022-09-09T06:38:56.955Z,17.12
2022-09-09T06:41:59.552Z,17.20
2022-09-09T06:45:24.277Z,17.29
2022-09-09T06:48:33.703Z,17.41
2022-09-09T06:51:43.860Z,17.49
2022-09-09T06:54:52.599Z,17.54
2022-09-09T06:57:55.531Z,17.63
2022-09-09T07:01:05.912Z,17.73
2022-09-09T07:04:12.389Z,17.78
2022-09-09T07:07:24.145Z,17.81
2022-09-09T07:10:27.950Z,17.80
2022-09-09T07:13:31.204Z,17.96
2022-09-09T07:16:34.595Z,17.89
2022-09-09T07:19:39.855Z,17.87
2022-09-09T07:22:46.039Z,17.93
2022-09-09T07:25:49.233Z,17.98
2022-09-09T07:28:52.907Z,18.00
2022-09-09T07:31:54.914Z,18.06
2022-09-09T07:35:02.015Z,18.07
2022-09-09T07:38:07.559Z,18.11
2022-09-09T07:41:14.681Z,18.02
2022-09-09T07:44:19.250Z,18.05
2022-09-09T07:47:25.723Z,18.15
2022-09-09T07:50:27.619Z,18.07
2022-09-09T07:53:31.946Z,18.16
2022-09-09T07:56:34.623Z,18.24
2022-09-09T07:59:37.156Z,18.22
2022-09-09T08:02:39.737Z,18.31
2022-09-09T08:05:42.313Z,18.27
2022-09-09T08:08:46.270Z,18.35
2022-09-09T08:11:49.973Z,18.50
2022-09-09T08:14:55.701Z,18.66
2022-09-09T08:17:58.607Z,18.66
2022-09-09T08:21:06.790Z,18.77
2022-09-09T08:24:11.531Z,18.80
2022-09-09T08:27:13.786Z,18.86
2022-09-09T08:30:16.057Z,18.95
2022-09-09T08:33:18.950Z,18.93
2022-09-09T08:36:22.659Z,18.96
2022-09-09T08:39:27.881Z,18.97
2022-09-09T08:42:39.195Z,19.11
2022-09-09T08:45:51.551Z,19.06
2022-09-09T08:48:59.998Z,18.91
2022-09-09T08:52:03.881Z,18.95
2022-09-09T08:55:25.165Z,19.05
2022-09-09T08:58:30.669Z,19.08
2022-09-09T09:01:55.423Z,19.09
2022-09-09T09:05:18.237Z,18.99
2022-09-09T09:08:29.571Z,18.97
2022-09-09T09:11:38.535Z,19.05
2022-09-09T09:14:43.649Z,19.37
2022-09-09T09:17:46.876Z,19.70
2022-09-09T09:20:59.570Z,19.38
2022-09-09T09:24:02.727Z,19.42
2022-09-09T09:27:13.969Z,19.62
2022-09-09T09:30:29.975Z,19.50
2022-09-09T09:33:47.576Z,19.64
2022-09-09T09:36:54.723Z,19.68
2022-09-09T09:43:09.466Z,19.84
2022-09-09T09:46:24.457Z,20.15
2022-09-09T09:49:27.256Z,20.12
2022-09-09T09:52:31.074Z,19.98
2022-09-09T09:55:36.466Z,20.30
2022-09-09T09:58:51.240Z,20.77
2022-09-09T10:02:07.516Z,20.42
2022-09-09T10:05:16.034Z,20.35
2022-09-09T10:08:21.871Z,20.09
2022-09-09T10:11:34.542Z,19.96
2022-09-09T10:14:46.859Z,19.63
2022-09-09T10:18:02.859Z,19.66
2022-09-09T10:21:13.985Z,19.82
2022-09-09T10:24:31.611Z,19.91
2022-09-09T10:27:46.258Z,20.07
2022-09-09T10:30:59.553Z,19.80
2022-09-09T10:34:11.316Z,20.02
2022-09-09T10:37:36.382Z,19.79
2022-09-09T10:40:45.348Z,19.47
2022-09-09T10:44:18.532Z,19.82
2022-09-09T10:47:42.012Z,20.34
2022-09-09T10:51:01.029Z,20.50
2022-09-09T10:54:20.256Z,20.73
2022-09-09T10:57:29.900Z,20.96
2022-09-09T11:00:40.004Z,20.89
2022-09-09T11:03:46.139Z,20.80
2022-09-09T11:06:53.436Z,21.18
2022-09-09T11:10:02.373Z,21.18
2022-09-09T11:13:09.406Z,21.43
2022-09-09T11:16:24.115Z,21.48
2022-09-09T11:19:33.455Z,21.28
2022-09-09T11:22:39.815Z,22.04
2022-09-09T11:25:45.687Z,22.34
2022-09-09T11:29:05.449Z,22.64
2022-09-09T11:32:26.520Z,22.81
2022-09-09T11:35:42.474Z,22.19
2022-09-09T11:38:47.764Z,22.86
2022-09-09T11:41:49.929Z,22.20
2022-09-09T11:44:52.235Z,22.01
2022-09-09T11:47:55.614Z,21.72
2022-09-09T11:51:04.872Z,21.58
2022-09-09T11:54:30.287Z,21.29
2022-09-09T11:57:35.829Z,21.24
2022-09-09T12:00:41.192Z,21.15
2022-09-09T12:03:46.010Z,21.08
2022-09-09T12:06:52.579Z,21.03
2022-09-09T12:10:00.318Z,20.96
2022-09-09T12:13:10.770Z,20.85
2022-09-09T12:16:27.252Z,20.99
2022-09-09T12:19:29.024Z,21.04
2022-09-09T12:22:40.454Z,20.91
2022-09-09T12:25:56.707Z,20.77
2022-09-09T12:29:12.992Z,20.51
2022-09-09T12:32:18.587Z,20.47
2022-09-09T12:35:24.841Z,20.35
2022-09-09T12:38:35.060Z,20.23
2022-09-09T12:41:37.080Z,20.15
2022-09-09T12:44:38.744Z,20.22
2022-09-09T12:47:46.910Z,19.63
2022-09-09T12:50:51.619Z,19.28
2022-09-09T12:53:56.352Z,18.87
2022-09-09T12:56:58.371Z,18.85
2022-09-09T13:00:07.809Z,18.62
2022-09-09T13:03:18.565Z,18.72
2022-09-09T13:06:28.543Z,19.84
2022-09-09T13:09:33.091Z,20.46
2022-09-09T13:12:34.810Z,19.85
2022-09-09T13:15:37.162Z,19.42
2022-09-09T13:18:43.110Z,19.27
2022-09-09T13:21:44.983Z,19.09
2022-09-09T13:24:48.422Z,18.99
2022-09-09T13:27:58.271Z,19.01
2022-09-09T13:31:03.506Z,18.83
2022-09-09T13:34:13.995Z,18.76
2022-09-09T13:37:23.584Z,18.70
2022-09-09T13:40:26.841Z,18.37
2022-09-09T13:43:32.216Z,18.00
2022-09-09T13:46:36.429Z,17.59
2022-09-09T13:49:38.443Z,17.23
2022-09-09T13:52:41.052Z,17.36
2022-09-09T13:55:44.316Z,17.65
2022-09-09T13:58:46.096Z,17.87
2022-09-09T14:01:50.020Z,17.82
2022-09-09T14:04:55.854Z,17.78
2022-09-09T14:07:58.912Z,17.96
2022-09-09T14:11:02.118Z,18.19
2022-09-09T14:14:03.946Z,18.95
2022-09-09T14:17:07.976Z,19.67
2022-09-09T14:20:12.772Z,20.35
2022-09-09T14:23:15.110Z,20.18
2022-09-09T14:26:19.879Z,20.40
2022-09-09T14:29:21.775Z,20.14
2022-09-09T14:32:23.430Z,20.14
2022-09-09T14:35:25.668Z,20.08
2022-09-09T14:38:31.278Z,20.27
2022-09-09T14:41:34.589Z,19.60
2022-09-09T14:44:36.791Z,19.83
2022-09-09T14:47:39.082Z,19.49
2022-09-09T14:50:41.551Z,19.48
2022-09-09T14:53:44.248Z,19.34
2022-09-09T14:56:48.594Z,19.02
2022-09-09T14:59:51.292Z,18.81
2022-09-09T15:02:53.612Z,18.64
2022-09-09T15:05:55.381Z,18.60
2022-09-09T15:09:00.397Z,18.76
2022-09-09T15:12:05.660Z,18.88
2022-09-09T15:15:08.519Z,18.86
2022-09-09T15:18:10.986Z,18.76
2022-09-09T15:21:14.874Z,18.75
2022-09-09T15:24:18.002Z,18.68
2022-09-09T15:27:21.547Z,18.59
2022-09-09T15:30:23.258Z,18.30
2022-09-09T15:33:25.095Z,18.22
2022-09-09T15:36:29.604Z,17.85
2022-09-09T15:39:33.666Z,17.27
2022-09-09T15:42:38.732Z,16.75
2022-09-09T15:45:40.423Z,16.79
2022-09-09T15:48:42.120Z,16.72
2022-09-09T15:51:45.383Z,16.73
2022-09-09T15:54:47.089Z,16.81
2022-09-09T15:57:50.339Z,16.87
2022-09-09T16:00:52.642Z,16.84
2022-09-09T16:03:55.070Z,16.95
2022-09-09T16:06:59.605Z,16.93
2022-09-09T16:10:01.095Z,16.92
2022-09-09T16:13:04.102Z,16.76
2022-09-09T16:16:07.415Z,16.63
2022-09-09T16:19:10.775Z,16.52
2022-09-09T16:22:12.534Z,16.59
2022-09-09T16:25:14.713Z,16.33
2022-09-09T16:28:17.727Z,16.47
2022-09-09T16:31:21.583Z,16.45
2022-09-09T16:34:23.369Z,16.41
2022-09-09T16:37:25.084Z,16.33
2022-09-09T16:40:27.014Z,16.28
2022-09-09T16:43:30.084Z,16.49
2022-09-09T16:46:35.037Z,16.47
2022-09-09T16:49:36.957Z,16.50
2022-09-09T16:52:38.614Z,16.39
2022-09-09T16:55:41.633Z,16.24
2022-09-09T16:58:46.143Z,16.28
2022-09-09T17:01:48.518Z,16.28
2022-09-09T17:04:50.200Z,16.14
2022-09-09T17:07:52.624Z,16.18
2022-09-09T17:10:54.345Z,16.22
2022-09-09T17:13:59.068Z,16.24
2022-09-09T17:17:14.014Z,16.14
2022-09-09T17:20:23.421Z,16.06
2022-09-09T17:23:25.049Z,16.22
2022-09-09T17:26:29.750Z,16.18
2022-09-09T17:29:32.904Z,16.32
2022-09-09T17:32:36.613Z,16.24
2022-09-09T17:35:38.363Z,16.06
2022-09-09T17:38:40.588Z,16.01
2022-09-09T17:41:42.283Z,15.96
2022-09-09T17:44:45.309Z,16.05
2022-09-09T17:47:47.047Z,16.04
2022-09-09T17:50:48.901Z,15.85
2022-09-09T17:53:52.207Z,15.84
2022-09-09T17:56:53.893Z,15.81
2022-09-09T17:59:56.946Z,15.87
2022-09-09T18:02:59.760Z,15.90
2022-09-09T18:06:03.155Z,16.00
2022-09-09T18:09:07.987Z,15.94
2022-09-09T18:12:09.851Z,16.23
2022-09-09T18:15:14.393Z,16.20
2022-09-09T18:18:20.221Z,16.31
2022-09-09T18:21:23.628Z,16.13
2022-09-09T18:24:26.654Z,16.03
2022-09-09T18:27:28.977Z,15.97
2022-09-09T18:30:32.181Z,15.83
2022-09-09T18:33:36.383Z,15.87
2022-09-09T18:36:40.589Z,15.77
2022-09-09T18:39:42.408Z,15.71
2022-09-09T18:42:47.072Z,15.80
2022-09-09T18:45:50.207Z,15.74
2022-09-09T18:48:52.553Z,15.81
2022-09-09T18:51:54.251Z,15.77
2022-09-09T18:54:56.007Z,15.74
2022-09-09T18:57:58.797Z,15.70
2022-09-09T19:01:03.552Z,15.50
2022-09-09T19:04:07.808Z,15.52
2022-09-09T19:07:11.021Z,15.59
2022-09-09T19:10:12.781Z,15.50
2022-09-09T19:13:15.193Z,15.33
2022-09-09T19:16:19.306Z,15.22
2022-09-09T19:19:24.079Z,15.11
2022-09-09T19:22:26.446Z,14.95
2022-09-09T19:25:28.323Z,14.91
2022-09-09T19:28:31.247Z,14.85
2022-09-09T19:31:35.356Z,14.83
2022-09-09T19:34:37.373Z,14.93
2022-09-09T19:37:39.121Z,15.11
2022-09-09T19:40:40.972Z,15.15
2022-09-09T19:43:43.004Z,15.24
2022-09-09T19:46:47.212Z,15.41
2022-09-09T19:49:50.406Z,15.26
2022-09-09T19:52:52.751Z,15.13
2022-09-09T19:55:54.477Z,15.01
2022-09-09T19:58:57.460Z,15.11
2022-09-09T20:02:00.584Z,14.93
2022-09-09T20:05:02.350Z,14.94
2022-09-09T20:08:04.102Z,14.94
2022-09-09T20:11:07.603Z,14.83
2022-09-09T20:14:09.714Z,14.79
2022-09-09T20:17:12.747Z,14.90
2022-09-09T20:20:14.589Z,14.87
2022-09-09T20:23:18.536Z,14.85
2022-09-09T20:26:22.756Z,14.80
2022-09-09T20:29:25.137Z,14.89
2022-09-09T20:32:28.859Z,14.80
2022-09-09T20:35:31.310Z,14.94
2022-09-09T20:38:33.933Z,14.97
2022-09-09T20:41:37.452Z,14.84
2022-09-09T20:44:39.161Z,14.92
2022-09-09T20:47:42.171Z,14.85
2022-09-09T20:50:43.894Z,14.84
2022-09-09T20:53:46.114Z,15.01
2022-09-09T20:56:48.409Z,15.06
2022-09-09T20:59:51.171Z,15.01
2022-09-09T21:02:54.153Z,15.07
2022-09-09T21:05:56.243Z,15.18
2022-09-09T21:08:57.941Z,15.13
2022-09-09T21:11:59.632Z,15.13
2022-09-09T21:15:01.452Z,15.02
2022-09-09T21:18:04.798Z,15.06
2022-09-09T21:21:06.965Z,15.01
2022-09-09T21:24:09.803Z,15.18
2022-09-09T21:27:11.589Z,15.21
2022-09-09T21:30:14.076Z,15.30
2022-09-09T21:33:18.635Z,15.26
2022-09-09T21:36:20.336Z,15.25
2022-09-09T21:39:22.136Z,15.11
2022-09-09T21:42:24.106Z,15.07
2022-09-09T21:45:27.873Z,15.04
2022-09-09T21:48:31.514Z,15.16
2022-09-09T21:51:33.323Z,15.16
2022-09-09T21:54:37.680Z,15.22
2022-09-09T21:57:39.349Z,15.33
2022-09-09T22:00:45.535Z,15.30
2022-09-09T22:03:48.680Z,15.34
2022-09-09T22:06:50.423Z,15.37
2022-09-09T22:09:52.058Z,15.47
2022-09-09T22:12:54.110Z,15.42
2022-09-09T22:15:58.209Z,15.38
2022-09-09T22:19:02.412Z,15.41
2022-09-09T22:22:04.250Z,15.45
2022-09-09T22:25:07.264Z,15.42
2022-09-09T22:28:09.642Z,15.57
2022-09-09T22:31:11.380Z,15.60
2022-09-09T22:34:14.418Z,15.52
2022-09-09T22:37:16.092Z,15.58
2022-09-09T22:40:18.077Z,15.60
2022-09-09T22:43:21.864Z,15.67
2022-09-09T22:46:24.011Z,15.75
2022-09-09T22:49:27.376Z,15.68
2022-09-09T22:52:32.141Z,15.70
2022-09-09T22:55:34.349Z,15.73
2022-09-09T22:58:36.898Z,15.76
2022-09-09T23:01:38.641Z,15.73
2022-09-09T23:04:41.787Z,15.77
2022-09-09T23:07:43.634Z,15.76
2022-09-09T23:10:45.281Z,15.72
2022-09-09T23:13:49.556Z,15.70
2022-09-09T23:16:52.486Z,15.67
2022-09-09T23:19:57.035Z,15.62
2022-09-09T23:22:58.754Z,15.54
2022-09-09T23:26:02.674Z,15.52
2022-09-09T23:29:04.864Z,15.47
2022-09-09T23:32:06.710Z,15.45
2022-09-09T23:35:09.874Z,15.44
2022-09-09T23:38:11.602Z,15.45
2022-09-09T23:41:15.286Z,15.43
2022-09-09T23:44:17.655Z,15.33
2022-09-09T23:47:19.369Z,15.41
2022-09-09T23:50:22.468Z,15.39
2022-09-09T23:53:24.353Z,15.46
2022-09-09T23:56:27.632Z,15.47
2022-09-09T23:59:29.738Z,15.40
